Time;durP1;ratioP1;P1;durP2;ratioP2;P2;SDS_P1;SDS_P2;PMS_P1;PMS_P2;Temp;Humidity;BMP_temperature;BMP_pressure;BME280_temperature;BME280_humidity;BME280_pressure;Samples;Min_cycle;Max_cycle;Signal;HPM_P1;HPM_P2
2022/08/03 00:01:07;;;;;;;3.55;3.25;;;;;;;20.85;100.00;96245.03;4962375;28;20205;-79
2022/08/03 00:03:34;;;;;;;4.03;3.20;;;;;;;20.79;100.00;96246.25;4957599;28;20205;-79
2022/08/03 00:06:02;;;;;;;3.95;3.30;;;;;;;20.70;100.00;96253.50;4953902;28;20201;-79
2022/08/03 00:08:29;;;;;;;4.45;3.50;;;;;;;20.69;100.00;96240.91;4958556;28;20285;-79
2022/08/03 00:10:56;;;;;;;4.38;3.42;;;;;;;20.75;100.00;96239.75;4965939;28;20301;-79
2022/08/03 00:13:23;;;;;;;6.45;3.28;;;;;;;20.84;100.00;96248.13;4966321;28;20251;-79
2022/08/03 00:15:52;;;;;;;6.43;3.00;;;;;;;20.85;100.00;96246.97;4959862;28;20593;-79
2022/08/03 00:18:19;;;;;;;5.65;3.33;;;;;;;20.85;100.00;96239.56;4974151;28;20206;-79
2022/08/03 00:20:46;;;;;;;4.28;3.45;;;;;;;20.89;100.00;96240.59;4959468;28;20237;-79
2022/08/03 00:23:13;;;;;;;4.68;3.45;;;;;;;20.94;100.00;96234.22;4976297;28;20232;-79
2022/08/03 00:25:40;;;;;;;4.72;3.50;;;;;;;20.95;100.00;96236.66;4955804;28;20209;-79
2022/08/03 00:28:09;;;;;;;5.60;3.50;;;;;;;20.95;100.00;96238.59;4963156;28;20224;-79
2022/08/03 00:30:36;;;;;;;5.18;3.60;;;;;;;20.79;100.00;96232.53;4956910;28;20197;-79
2022/08/03 00:33:04;;;;;;;5.40;3.28;;;;;;;20.70;100.00;96232.38;4965232;28;20244;-79
2022/08/03 00:35:31;;;;;;;4.13;3.72;;;;;;;20.72;100.00;96229.34;4963027;28;20213;-79
2022/08/03 00:37:59;;;;;;;5.78;3.63;;;;;;;20.73;100.00;96230.97;4963132;28;20298;-79
2022/08/03 00:40:26;;;;;;;4.20;3.50;;;;;;;20.69;100.00;96225.25;4960747;28;20201;-79
2022/08/03 00:42:55;;;;;;;3.45;3.10;;;;;;;20.68;100.00;96229.09;4958411;28;20201;-79
2022/08/03 00:45:24;;;;;;;5.32;3.15;;;;;;;20.54;100.00;96221.94;4964806;28;20197;-79
2022/08/03 00:47:52;;;;;;;4.88;3.10;;;;;;;20.54;100.00;96219.19;4961217;28;20213;-79
2022/08/03 00:50:22;;;;;;;5.93;3.53;;;;;;;20.56;100.00;96223.28;4963186;28;20284;-79
2022/08/03 00:52:49;;;;;;;5.50;3.40;;;;;;;20.57;100.00;96226.84;4961761;28;20221;-79
2022/08/03 00:55:17;;;;;;;4.43;3.38;;;;;;;20.50;100.00;96231.88;4962405;28;20213;-79
2022/08/03 00:57:45;;;;;;;4.90;3.58;;;;;;;20.49;100.00;96231.06;4964959;28;20241;-79
2022/08/03 01:00:14;;;;;;;4.00;3.47;;;;;;;20.55;100.00;96238.09;4963154;28;20202;-79
2022/08/03 01:02:42;;;;;;;4.03;3.58;;;;;;;20.53;100.00;96236.75;4963960;28;20268;-79
2022/08/03 01:05:09;;;;;;;4.85;3.40;;;;;;;20.38;100.00;96235.88;4960207;28;20200;-79
2022/08/03 01:07:49;;;;;;;6.43;3.67;;;;;;;20.31;100.00;96240.88;4955366;28;20214;-79
2022/08/03 01:10:24;;;;;;;6.38;3.70;;;;;;;20.22;100.00;96230.84;4961324;28;20272;-79
2022/08/03 01:12:59;;;;;;;5.28;3.78;;;;;;;20.24;100.00;96223.97;4966114;28;20239;-79
2022/08/03 01:15:36;;;;;;;3.95;3.13;;;;;;;20.25;100.00;96230.25;4979520;28;20209;-79
2022/08/03 01:18:08;;;;;;;4.13;3.33;;;;;;;20.23;100.00;96233.31;4966395;28;20227;-79
2022/08/03 01:20:38;;;;;;;4.38;3.30;;;;;;;20.21;100.00;96238.25;4976671;28;20236;-79
2022/08/03 01:23:31;;;;;;;6.63;3.28;;;;;;;20.06;100.00;96237.63;4965192;28;20208;-79
2022/08/03 01:26:08;;;;;;;5.05;3.13;;;;;;;20.05;100.00;96231.34;4962772;28;20225;-79
2022/08/03 01:28:56;;;;;;;6.88;3.83;;;;;;;20.08;100.00;96241.69;4976636;28;20224;-79
2022/08/03 01:31:31;;;;;;;5.28;3.40;;;;;;;20.14;100.00;96234.25;4976333;28;20232;-79
2022/08/03 01:34:02;;;;;;;7.22;3.65;;;;;;;20.17;100.00;96234.44;4963196;28;20247;-79
2022/08/03 01:36:35;;;;;;;4.35;3.30;;;;;;;20.14;100.00;96240.53;4967048;28;20208;-79
2022/08/03 01:39:08;;;;;;;6.30;3.33;;;;;;;20.13;100.00;96241.66;4979861;28;20206;-79
2022/08/03 01:41:40;;;;;;;7.00;4.40;;;;;;;20.06;100.00;96232.16;4964081;28;20208;-79
2022/08/03 01:44:10;;;;;;;5.35;3.80;;;;;;;19.95;100.00;96243.22;4974367;28;20218;-79
2022/08/03 01:46:40;;;;;;;4.25;3.60;;;;;;;19.94;100.00;96241.59;4976898;28;20287;-79
2022/08/03 01:49:10;;;;;;;4.28;3.47;;;;;;;19.93;100.00;96236.41;4961990;28;20220;-79
2022/08/03 01:51:38;;;;;;;5.65;3.92;;;;;;;19.91;100.00;96230.41;4963358;28;20201;-79
2022/08/03 01:54:08;;;;;;;5.00;3.88;;;;;;;19.85;100.00;96242.53;4966685;28;20231;-79
2022/08/03 01:56:36;;;;;;;5.10;3.47;;;;;;;19.86;100.00;96244.16;4955999;28;20254;-79
2022/08/03 01:59:05;;;;;;;3.70;3.30;;;;;;;19.87;100.00;96240.31;4962443;28;20207;-79
2022/08/03 02:01:35;;;;;;;5.18;3.83;;;;;;;19.92;100.00;96245.72;4957826;28;20272;-79
2022/08/03 02:04:05;;;;;;;4.38;3.40;;;;;;;19.92;100.00;96243.00;4966740;28;20236;-79
2022/08/03 02:06:34;;;;;;;3.92;3.33;;;;;;;19.87;100.00;96243.88;4965692;28;20205;-79
2022/08/03 02:09:03;;;;;;;4.90;3.38;;;;;;;19.80;100.00;96239.88;4965038;28;20209;-79
2022/08/03 02:11:32;;;;;;;3.53;3.22;;;;;;;19.74;100.00;96247.31;4958831;28;20217;-79
2022/08/03 02:14:03;;;;;;;5.00;3.65;;;;;;;19.73;100.00;96250.34;4961490;28;20216;-79
2022/08/03 02:16:33;;;;;;;5.28;3.53;;;;;;;19.68;100.00;96247.66;4959914;28;20272;-79
2022/08/03 02:19:04;;;;;;;5.13;3.53;;;;;;;19.62;100.00;96244.97;4966676;28;20268;-79
2022/08/03 02:21:33;;;;;;;5.35;3.58;;;;;;;19.60;100.00;96235.41;4966124;28;20249;-79
2022/08/03 02:24:00;;;;;;;4.53;3.80;;;;;;;19.64;100.00;96236.47;4959270;28;20221;-79
2022/08/03 02:26:44;;;;;;;4.22;3.50;;;;;;;19.64;100.00;96245.50;5112523;27;20556;-80
2022/08/03 02:29:15;;;;;;;5.22;3.58;;;;;;;19.56;100.00;96240.63;5094361;27;20206;-80
2022/08/03 02:31:45;;;;;;;4.90;3.47;;;;;;;19.52;100.00;96249.75;5099769;27;20211;-80
2022/08/03 02:34:14;;;;;;;3.75;3.45;;;;;;;19.57;100.00;96253.22;5109412;28;20287;-80
2022/08/03 02:36:46;;;;;;;4.72;3.40;;;;;;;19.45;100.00;96236.38;5086770;28;20204;-80
2022/08/03 02:39:16;;;;;;;6.07;3.63;;;;;;;19.41;100.00;96238.03;5103180;28;20283;-80
2022/08/03 02:41:47;;;;;;;4.77;3.80;;;;;;;19.39;100.00;96239.44;5098003;27;20206;-80
2022/08/03 02:44:17;;;;;;;4.55;3.53;;;;;;;19.34;100.00;96234.00;5092379;28;20216;-80
2022/08/03 02:46:46;;;;;;;4.63;3.63;;;;;;;19.21;100.00;96241.78;5088153;28;20220;-80
2022/08/03 02:49:17;;;;;;;4.40;3.77;;;;;;;19.20;100.00;96242.06;5111353;27;20256;-80
2022/08/03 02:51:47;;;;;;;6.90;3.90;;;;;;;19.27;100.00;96235.16;5094519;28;20208;-80
2022/08/03 02:54:17;;;;;;;4.63;3.60;;;;;;;19.25;100.00;96244.75;5103989;28;20294;-80
2022/08/03 02:56:47;;;;;;;4.57;3.60;;;;;;;19.24;100.00;96237.66;5116183;27;20234;-80
2022/08/03 02:59:16;;;;;;;3.80;3.50;;;;;;;19.29;100.00;96251.31;5118040;27;20203;-80
2022/08/03 03:01:45;;;;;;;4.40;3.80;;;;;;;19.24;100.00;96240.38;5133542;27;20210;-80
2022/08/03 03:04:12;;;;;;;4.67;3.90;;;;;;;19.07;100.00;96237.25;5110346;27;20199;-80
2022/08/03 03:06:40;;;;;;;6.53;4.40;;;;;;;19.05;100.00;96239.47;5118758;27;20221;-80
2022/08/03 03:09:08;;;;;;;5.80;3.90;;;;;;;19.10;100.00;96247.63;5115577;27;20263;-80
2022/08/03 03:11:39;;;;;;;4.67;4.03;;;;;;;19.10;100.00;96231.22;5111009;27;20214;-80
2022/08/03 03:14:10;;;;;;;4.73;3.90;;;;;;;19.08;100.00;96241.63;5118178;27;20227;-80
2022/08/03 03:16:38;;;;;;;5.30;3.90;;;;;;;19.14;100.00;96235.81;5111463;27;20203;-80
2022/08/03 03:19:07;;;;;;;4.13;3.63;;;;;;;19.15;100.00;96237.44;5117939;27;20200;-80
2022/08/03 03:21:37;;;;;;;4.53;3.73;;;;;;;19.18;100.00;96245.09;5117537;27;20226;-80
2022/08/03 03:24:06;;;;;;;5.63;4.00;;;;;;;19.17;100.00;96243.47;5133132;27;20195;-80
2022/08/03 03:26:34;;;;;;;4.00;3.60;;;;;;;19.22;100.00;96239.88;5112227;27;20262;-82
2022/08/03 03:29:02;;;;;;;3.93;3.53;;;;;;;19.25;100.00;96245.56;5116049;27;20218;-79
2022/08/03 03:31:31;;;;;;;4.43;3.80;;;;;;;19.21;100.00;96250.00;5117871;27;20200;-79
2022/08/03 03:33:58;;;;;;;5.20;3.90;;;;;;;19.21;100.00;96250.00;5107673;27;20286;-79
2022/08/03 03:36:25;;;;;;;5.07;3.53;;;;;;;19.23;100.00;96249.69;5129690;27;20196;-79
2022/08/03 03:38:52;;;;;;;4.70;3.97;;;;;;;19.22;100.00;96251.63;5100274;27;20290;-79
2022/08/03 03:41:19;;;;;;;4.53;4.10;;;;;;;19.21;100.00;96244.53;5112580;27;20196;-79
2022/08/03 03:43:47;;;;;;;6.10;3.90;;;;;;;19.09;100.00;96241.34;5105229;27;20211;-79
2022/08/03 03:46:14;;;;;;;5.97;3.93;;;;;;;19.03;100.00;96247.16;5105537;27;20246;-79
2022/08/03 03:48:42;;;;;;;5.43;3.70;;;;;;;19.03;100.00;96245.22;5096723;27;20287;-79
2022/08/03 03:51:10;;;;;;;6.77;4.63;;;;;;;19.03;100.00;96249.88;5115244;27;20204;-79
2022/08/03 03:53:37;;;;;;;5.13;3.97;;;;;;;18.94;100.00;96260.63;5104049;27;20203;-79
2022/08/03 03:56:04;;;;;;;6.87;4.03;;;;;;;18.92;100.00;96245.59;5108125;27;20219;-78
2022/08/03 03:58:33;;;;;;;5.60;3.67;;;;;;;19.00;100.00;96250.44;5100177;27;20279;-79
2022/08/03 04:01:00;;;;;;;5.63;3.90;;;;;;;18.99;100.00;96252.38;5119254;27;20200;-79
2022/08/03 04:03:28;;;;;;;6.13;4.60;;;;;;;19.02;100.00;96251.81;5100376;27;20287;-84
2022/08/03 04:11:44;;;;;;;4.57;4.10;;;;;;;18.97;100.00;96251.03;5096762;27;20234;-84
2022/08/03 04:14:14;;;;;;;7.43;3.90;;;;;;;19.04;100.00;96251.53;5102717;27;20238;-85
2022/08/03 04:16:46;;;;;;;4.43;3.97;;;;;;;19.01;100.00;96250.16;5098630;27;20219;-81
2022/08/03 04:19:18;;;;;;;4.90;4.07;;;;;;;19.02;100.00;96259.19;5104853;27;20319;-85
2022/08/03 04:21:50;;;;;;;7.60;4.23;;;;;;;19.02;100.00;96249.06;5114430;27;20224;-85
2022/08/03 04:24:20;;;;;;;4.63;3.83;;;;;;;19.07;100.00;96248.19;5105330;27;20199;-84
2022/08/03 04:26:50;;;;;;;5.03;3.83;;;;;;;19.00;100.00;96250.44;5103187;27;20327;-84
2022/08/03 04:29:19;;;;;;;5.43;3.83;;;;;;;19.01;100.00;96247.44;5099370;27;20308;-83
2022/08/03 04:31:48;;;;;;;5.77;3.90;;;;;;;19.04;100.00;96254.25;5110927;27;20215;-84
2022/08/03 04:34:16;;;;;;;6.53;4.00;;;;;;;19.08;100.00;96250.66;5104262;27;20285;-83
2022/08/03 04:36:49;;;;;;;5.40;4.20;;;;;;;19.05;100.00;96250.44;5107136;27;20584;-84
2022/08/03 04:39:24;;;;;;;4.20;3.80;;;;;;;19.06;100.00;96249.28;5103057;27;20296;-85
2022/08/03 04:41:54;;;;;;;5.83;4.00;;;;;;;19.05;100.00;96261.38;5097072;27;20215;-84
2022/08/03 04:44:23;;;;;;;6.07;4.13;;;;;;;19.06;100.00;96252.03;5103770;27;20196;-85
2022/08/03 04:46:51;;;;;;;4.93;4.40;;;;;;;19.06;100.00;96257.50;5121911;27;20231;-85
2022/08/03 04:49:20;;;;;;;4.50;4.00;;;;;;;19.10;100.00;96258.59;5093591;27;20208;-85
2022/08/03 04:51:49;;;;;;;6.63;3.88;;;;;;;19.16;100.00;96263.72;5099507;28;20208;-85
2022/08/03 04:54:16;;;;;;;4.63;3.92;;;;;;;19.14;100.00;96263.19;5101836;27;20195;-85
2022/08/03 04:56:44;;;;;;;5.20;4.20;;;;;;;19.12;100.00;96261.84;5106839;27;20318;-85
2022/08/03 04:59:11;;;;;;;5.43;4.43;;;;;;;19.14;100.00;96267.88;5106098;27;20228;-85
2022/08/03 05:01:40;;;;;;;4.07;3.77;;;;;;;19.22;100.00;96259.03;5094205;27;20203;-85
2022/08/03 05:04:07;;;;;;;4.53;4.13;;;;;;;19.13;100.00;96249.81;5099323;27;20287;-84
2022/08/03 05:06:35;;;;;;;4.22;3.50;;;;;;;19.19;100.00;96259.59;5103793;27;20227;-85
2022/08/03 05:09:03;;;;;;;4.45;4.05;;;;;;;19.19;100.00;96257.69;5105898;27;20194;-85
2022/08/03 05:11:30;;;;;;;4.35;3.92;;;;;;;19.21;100.00;96254.66;5097994;27;20211;-87
2022/08/03 05:13:57;;;;;;;8.02;4.28;;;;;;;19.23;100.00;96257.91;5098904;27;20188;-85
2022/08/03 05:16:26;;;;;;;4.63;4.18;;;;;;;19.20;100.00;96253.03;5093353;27;20211;-85
2022/08/03 05:18:53;;;;;;;6.33;4.10;;;;;;;19.23;100.00;96256.00;5097411;28;20200;-86
2022/08/03 05:21:20;;;;;;;5.70;4.63;;;;;;;19.20;100.00;96253.03;5096482;27;20203;-87
2022/08/03 05:23:47;;;;;;;8.18;6.75;;;;;;;19.21;100.00;96260.13;5099274;27;20196;-86
2022/08/03 05:26:15;;;;;;;6.47;3.80;;;;;;;19.20;100.00;96264.78;5094526;28;20232;-86
2022/08/03 05:28:43;;;;;;;4.70;4.30;;;;;;;19.23;100.00;96258.72;5093856;27;20200;-86
2022/08/03 05:31:10;;;;;;;4.47;4.07;;;;;;;19.27;100.00;96256.25;5091091;28;20204;-82
2022/08/03 05:33:38;;;;;;;4.65;4.25;;;;;;;19.31;100.00;96267.44;5092814;28;20193;-83
2022/08/03 05:36:05;;;;;;;4.63;4.23;;;;;;;19.33;100.00;96266.03;5095342;27;20207;-83
2022/08/03 05:38:33;;;;;;;4.93;4.47;;;;;;;19.35;100.00;96265.75;5104311;28;20224;-82
2022/08/03 05:41:00;;;;;;;6.97;4.85;;;;;;;19.40;100.00;96258.28;5092669;28;20221;-83
2022/08/03 05:43:28;;;;;;;5.43;4.13;;;;;;;19.36;100.00;96256.44;5102998;28;20517;-82
2022/08/03 05:45:55;;;;;;;7.35;4.10;;;;;;;19.32;100.00;96256.19;5095460;28;20336;-83
2022/08/03 05:48:23;;;;;;;4.60;4.20;;;;;;;19.31;100.00;96254.53;5103902;28;20284;-81
2022/08/03 05:50:50;;;;;;;8.45;7.50;;;;;;;19.27;100.00;96257.06;5098611;28;20299;-82
2022/08/03 05:53:17;;;;;;;6.18;4.60;;;;;;;19.18;100.00;96261.53;5094668;28;20211;-83
2022/08/03 05:55:44;;;;;;;10.00;4.75;;;;;;;19.14;100.00;96262.41;5094887;28;20226;-83
2022/08/03 05:58:11;;;;;;;10.13;4.70;;;;;;;19.03;100.00;96261.66;5096405;28;20192;-83
2022/08/03 06:00:40;;;;;;;4.95;4.45;;;;;;;18.98;100.00;96264.41;5105520;28;20215;-82
2022/08/03 06:03:07;;;;;;;5.87;4.80;;;;;;;18.98;100.00;96263.59;5091041;28;20216;-87
2022/08/03 06:05:35;;;;;;;5.57;4.70;;;;;;;18.97;100.00;96264.72;5091614;28;20219;-86
2022/08/03 06:08:02;;;;;;;6.17;4.37;;;;;;;19.00;100.00;96255.91;5103490;28;20294;-86
2022/08/03 06:10:30;;;;;;;4.77;4.30;;;;;;;19.09;100.00;96256.94;5095364;28;20211;-86
2022/08/03 06:12:57;;;;;;;4.75;4.05;;;;;;;19.11;100.00;96262.97;5090199;28;20219;-88
2022/08/03 06:15:24;;;;;;;4.60;4.20;;;;;;;19.09;100.00;96260.50;5101627;28;20220;-86
2022/08/03 06:17:52;;;;;;;5.27;4.67;;;;;;;19.10;100.00;96259.41;5094087;28;20205;-89
2022/08/03 06:20:21;;;;;;;5.15;4.47;;;;;;;19.14;100.00;96270.59;5095442;28;20208;-86
2022/08/03 06:22:48;;;;;;;5.03;4.57;;;;;;;19.14;100.00;96259.66;5102042;28;20196;-87
2022/08/03 06:25:16;;;;;;;4.53;4.13;;;;;;;19.17;100.00;96253.59;5106301;28;20227;-87
2022/08/03 06:27:43;;;;;;;7.07;4.67;;;;;;;19.19;100.00;96273.28;5100857;28;20284;-86
2022/08/03 06:30:12;;;;;;;5.33;4.83;;;;;;;19.23;100.00;96266.94;5098931;28;20295;-86
2022/08/03 06:32:40;;;;;;;5.97;5.05;;;;;;;19.27;100.00;96267.19;5096131;28;20236;-88
2022/08/03 06:35:09;;;;;;;6.13;4.53;;;;;;;19.31;100.00;96279.19;5102276;28;20215;-88
2022/08/03 06:37:47;;;;;;;4.90;4.40;;;;;;;19.33;100.00;96271.50;5100935;28;20200;-87
2022/08/03 06:40:17;;;;;;;4.55;4.15;;;;;;;19.31;100.00;96272.94;5103909;28;20203;-86
2022/08/03 06:42:45;;;;;;;6.25;5.60;;;;;;;19.35;100.00;96271.22;5091724;28;20200;-87
2022/08/03 06:45:12;;;;;;;8.13;5.33;;;;;;;19.35;100.00;96276.72;5098565;28;20312;-86
2022/08/03 06:47:40;;;;;;;6.03;4.85;;;;;;;19.35;100.00;96280.25;5102953;28;20551;-87
2022/08/03 06:50:10;;;;;;;5.60;4.60;;;;;;;19.37;100.00;96282.72;5100985;28;20205;-87
2022/08/03 06:52:37;;;;;;;6.00;4.57;;;;;;;19.34;100.00;96280.53;5087810;28;20205;-88
2022/08/03 06:55:06;;;;;;;4.93;4.38;;;;;;;19.35;100.00;96288.47;5096539;28;20196;-88
2022/08/03 06:57:33;;;;;;;6.27;5.00;;;;;;;19.31;100.00;96292.09;5095726;28;20583;-87
2022/08/03 07:00:01;;;;;;;5.97;4.85;;;;;;;19.34;100.00;96281.38;5090605;28;20201;-88
2022/08/03 07:02:29;;;;;;;5.65;4.60;;;;;;;19.36;100.00;96279.16;5090614;28;20197;-87
2022/08/03 07:04:57;;;;;;;5.85;5.28;;;;;;;19.36;100.00;96294.78;5097267;28;20216;-87
2022/08/03 07:07:25;;;;;;;8.00;5.15;;;;;;;19.30;100.00;96290.44;5102162;28;20216;-86
2022/08/03 07:09:52;;;;;;;5.73;4.97;;;;;;;19.32;100.00;96294.50;5092406;28;20224;-86
2022/08/03 07:12:19;;;;;;;5.07;4.53;;;;;;;19.33;100.00;96289.84;5101411;27;20200;-88
2022/08/03 07:14:46;;;;;;;4.78;4.38;;;;;;;19.32;100.00;96280.00;5102057;27;20292;-88
2022/08/03 07:17:13;;;;;;;5.57;5.05;;;;;;;19.27;100.00;96284.44;5105162;28;20207;-87
2022/08/03 07:19:41;;;;;;;5.72;4.80;;;;;;;19.34;100.00;96275.06;5103893;28;20208;-87
2022/08/03 07:22:08;;;;;;;5.97;5.40;;;;;;;19.41;100.00;96286.50;5091822;27;20201;-86
2022/08/03 07:24:36;;;;;;;5.70;5.20;;;;;;;19.52;100.00;96277.94;5108553;27;20271;-86
2022/08/03 07:27:03;;;;;;;4.78;4.35;;;;;;;19.92;100.00;96275.88;5097598;28;20216;-87
2022/08/03 07:29:31;;;;;;;5.03;4.20;;;;;;;20.46;100.00;96274.72;5102924;27;20471;-87
2022/08/03 07:31:58;;;;;;;6.78;5.63;;;;;;;20.98;100.00;96266.25;5109077;27;20204;-88
2022/08/03 07:34:25;;;;;;;4.75;4.22;;;;;;;21.44;100.00;96274.59;5109137;27;20302;-87
2022/08/03 07:36:53;;;;;;;4.78;4.00;;;;;;;21.85;100.00;96269.19;5106980;28;20196;-88
2022/08/03 07:39:20;;;;;;;9.52;4.18;;;;;;;22.10;100.00;96275.34;5100257;28;20196;-86
2022/08/03 07:41:50;;;;;;;6.80;4.72;;;;;;;22.40;100.00;96269.19;5103158;28;20378;-88
2022/08/03 07:44:18;;;;;;;5.07;3.60;;;;;;;22.76;100.00;96277.53;5099788;28;20196;-87
2022/08/03 07:46:45;;;;;;;5.10;3.90;;;;;;;22.96;100.00;96273.50;5100278;27;20555;-87
2022/08/03 07:49:12;;;;;;;4.63;3.45;;;;;;;23.24;100.00;96266.75;5095392;27;20231;-87
2022/08/03 07:51:40;;;;;;;4.13;3.83;;;;;;;23.42;97.47;96267.69;5104588;27;20192;-87
2022/08/03 07:54:08;;;;;;;4.50;4.10;;;;;;;23.57;94.40;96261.81;5105043;27;20199;-87
2022/08/03 07:56:36;;;;;;;5.22;3.90;;;;;;;23.87;95.15;96262.97;5105216;27;20224;-88
2022/08/03 07:59:04;;;;;;;6.10;4.10;;;;;;;24.10;92.30;96274.75;5115456;27;20196;-87
2022/08/03 08:01:35;;;;;;;4.10;3.70;;;;;;;24.34;87.89;96266.09;5105120;27;20231;-87
2022/08/03 08:04:02;;;;;;;3.92;3.60;;;;;;;24.31;89.25;96252.94;5122588;27;20218;-87
2022/08/03 08:06:31;;;;;;;5.00;3.30;;;;;;;24.41;87.80;96260.94;5100123;28;20235;-87
2022/08/03 08:09:01;;;;;;;4.18;3.75;;;;;;;24.37;89.07;96255.22;5119510;27;20223;-86
2022/08/03 08:11:28;;;;;;;3.40;3.15;;;;;;;24.59;88.20;96262.56;5107264;27;20208;-87
2022/08/03 08:13:55;;;;;;;3.63;3.33;;;;;;;24.56;86.36;96251.38;5098983;27;20207;-86
2022/08/03 08:16:23;;;;;;;6.38;3.90;;;;;;;24.76;86.26;96259.84;5096551;27;20204;-88
2022/08/03 08:18:50;;;;;;;5.20;3.67;;;;;;;25.21;84.40;96256.81;5110469;27;20200;-88
2022/08/03 08:21:18;;;;;;;4.70;3.92;;;;;;;25.71;82.63;96254.31;5101962;27;20199;-87
2022/08/03 08:23:45;;;;;;;4.30;3.78;;;;;;;26.11;82.42;96254.84;5108385;28;20204;-87
2022/08/03 08:26:12;;;;;;;3.92;3.53;;;;;;;26.44;77.78;96251.47;5097845;27;20326;-88
2022/08/03 08:28:39;;;;;;;4.03;3.72;;;;;;;26.65;77.39;96253.13;5099650;28;20205;-88
2022/08/03 08:31:07;;;;;;;5.13;4.22;;;;;;;26.14;76.91;96256.94;5094274;28;20287;-86
2022/08/03 08:33:36;;;;;;;5.03;4.50;;;;;;;26.34;76.63;96253.47;5098027;28;20280;-87
2022/08/03 08:36:03;;;;;;;5.95;4.80;;;;;;;26.53;74.82;96255.00;5100414;27;20212;-87
2022/08/03 08:38:30;;;;;;;5.90;4.18;;;;;;;26.72;74.09;96252.59;5097845;27;20195;-86
2022/08/03 08:40:57;;;;;;;5.03;4.03;;;;;;;26.78;73.54;96254.03;5103419;27;20338;-87
2022/08/03 08:43:24;;;;;;;4.50;4.10;;;;;;;26.72;74.86;96258.13;5096107;27;20200;-86
2022/08/03 08:45:54;;;;;;;6.07;4.20;;;;;;;26.80;75.34;96246.16;5098531;27;20272;-87
2022/08/03 08:48:24;;;;;;;6.07;4.60;;;;;;;26.86;75.22;96255.94;5102547;28;20312;-88
2022/08/03 08:50:55;;;;;;;4.90;4.28;;;;;;;26.98;74.18;96256.00;5100266;28;20249;-86
2022/08/03 08:53:25;;;;;;;4.72;4.13;;;;;;;27.08;73.41;96257.56;5098134;27;20215;-88
2022/08/03 08:55:55;;;;;;;6.68;4.13;;;;;;;27.20;72.61;96256.84;5095738;27;20306;-89
2022/08/03 08:58:23;;;;;;;5.93;4.70;;;;;;;27.44;72.84;96254.16;5124819;27;20207;-87
2022/08/03 09:00:51;;;;;;;6.60;4.25;;;;;;;27.44;73.09;96260.53;5105314;27;20215;-87
2022/08/03 09:03:18;;;;;;;6.00;4.30;;;;;;;27.32;73.36;96262.41;5108838;27;20218;-86
2022/08/03 09:05:46;;;;;;;4.55;4.15;;;;;;;27.33;71.80;96255.72;5104508;27;20279;-88
2022/08/03 09:08:14;;;;;;;7.28;4.32;;;;;;;26.97;74.50;96246.06;5093391;28;20224;-88
2022/08/03 09:10:41;;;;;;;9.13;4.10;;;;;;;27.34;74.43;96254.59;5092017;27;20200;-86
2022/08/03 09:13:09;;;;;;;4.70;4.20;;;;;;;27.25;73.62;96246.34;5108938;28;20204;-87
2022/08/03 09:15:37;;;;;;;4.93;4.43;;;;;;;27.34;74.99;96255.41;5099234;28;20208;-88
2022/08/03 09:18:04;;;;;;;4.57;4.18;;;;;;;27.39;73.45;96257.16;5095281;28;20200;-87
2022/08/03 09:20:35;;;;;;;4.50;4.10;;;;;;;27.52;73.54;96252.47;5100408;27;20199;-89
2022/08/03 09:23:07;;;;;;;5.20;4.05;;;;;;;27.86;71.84;96258.50;5103300;27;20203;-87
2022/08/03 09:25:37;;;;;;;6.95;4.85;;;;;;;28.03;69.07;96251.13;5118386;27;20319;-88
2022/08/03 09:28:07;;;;;;;4.40;4.00;;;;;;;27.99;66.61;96248.22;5102428;28;20224;-87
2022/08/03 09:30:34;;;;;;;4.38;3.97;;;;;;;27.91;67.74;96251.91;5098679;28;20238;-87
2022/08/03 09:33:02;;;;;;;4.40;4.00;;;;;;;28.13;66.17;96259.00;5116715;27;20213;-87
2022/08/03 09:35:29;;;;;;;4.07;3.78;;;;;;;28.15;66.75;96257.50;5106656;27;20236;-89
2022/08/03 09:38:10;;;;;;;3.97;3.67;;;;;;;28.31;66.48;96254.88;5093782;27;20207;-87
2022/08/03 09:40:39;;;;;;;4.80;3.78;;;;;;;28.41;65.18;96265.50;5109193;27;20224;-88
2022/08/03 09:43:07;;;;;;;5.15;3.65;;;;;;;28.34;65.31;96262.50;5113582;27;20238;-85
2022/08/03 09:45:35;;;;;;;4.15;3.75;;;;;;;28.32;66.65;96262.06;5095509;28;20303;-88
2022/08/03 09:48:23;;;;;;;5.38;4.32;;;;;;;28.53;65.46;96257.19;5091050;27;20228;-87
2022/08/03 09:50:50;;;;;;;4.18;3.78;;;;;;;28.70;65.11;96270.03;5106555;27;20215;-87
2022/08/03 09:53:19;;;;;;;4.00;3.60;;;;;;;28.73;62.38;96261.00;5118966;27;20214;-86
2022/08/03 09:55:55;;;;;;;5.38;3.85;;;;;;;28.76;63.29;96252.00;5110765;27;20231;-87
2022/08/03 09:58:23;;;;;;;7.35;3.75;;;;;;;28.94;65.45;96260.88;5107410;27;20293;-89
2022/08/03 10:00:56;;;;;;;4.43;4.00;;;;;;;28.92;63.31;96263.22;5103680;27;20208;-87
2022/08/03 10:03:24;;;;;;;5.72;3.67;;;;;;;28.94;62.25;96258.91;5094910;28;20214;-86
2022/08/03 10:05:51;;;;;;;4.40;4.00;;;;;;;29.11;63.50;96255.03;5096700;27;20195;-87
2022/08/03 10:08:20;;;;;;;6.70;3.78;;;;;;;29.26;63.76;96259.84;5109168;27;20310;-87
2022/08/03 10:10:48;;;;;;;5.70;4.20;;;;;;;29.23;62.18;96254.22;5103388;27;20223;-87
2022/08/03 10:13:18;;;;;;;4.07;3.78;;;;;;;29.35;63.14;96241.09;5124564;27;20305;-86
2022/08/03 10:15:46;;;;;;;4.30;3.90;;;;;;;29.50;62.52;96238.72;5100246;27;20208;-85
2022/08/03 10:18:13;;;;;;;4.80;4.28;;;;;;;29.53;62.23;96249.94;5109949;27;20200;-84
2022/08/03 10:20:46;;;;;;;4.35;3.83;;;;;;;29.37;63.36;96237.16;5100450;27;20253;-84
2022/08/03 10:23:14;;;;;;;5.68;4.00;;;;;;;29.50;63.77;96233.16;5115884;27;20298;-85
2022/08/03 10:25:43;;;;;;;6.63;4.57;;;;;;;29.63;65.13;96241.09;5102939;28;20231;-87
2022/08/03 10:28:15;;;;;;;5.25;4.70;;;;;;;29.51;62.98;96229.22;5108919;28;20318;-85
2022/08/03 10:30:48;;;;;;;4.50;4.10;;;;;;;29.51;63.43;96226.44;5102117;28;20203;-87
2022/08/03 10:33:19;;;;;;;4.30;3.88;;;;;;;29.80;63.04;96231.59;5100708;28;20208;-86
2022/08/03 10:35:48;;;;;;;5.05;3.85;;;;;;;29.94;62.21;96229.22;5098029;27;20318;-85
2022/08/03 10:38:20;;;;;;;4.53;4.13;;;;;;;30.12;63.67;96223.31;5093992;28;20206;-87
2022/08/03 10:40:50;;;;;;;3.97;3.67;;;;;;;30.15;62.02;96222.59;5107324;28;20227;-85
2022/08/03 10:43:22;;;;;;;4.03;3.72;;;;;;;30.32;62.35;96220.25;5110790;28;20203;-87
2022/08/03 10:45:51;;;;;;;5.43;4.18;;;;;;;30.48;60.28;96217.44;5097912;28;20215;-87
2022/08/03 10:48:20;;;;;;;4.32;3.88;;;;;;;30.57;60.43;96209.72;5104371;28;20219;-87
2022/08/03 10:50:49;;;;;;;4.18;3.78;;;;;;;30.64;59.21;96198.75;5102176;27;20302;-86
2022/08/03 10:53:16;;;;;;;5.03;3.72;;;;;;;30.55;60.37;96206.50;5111038;27;20206;-87
2022/08/03 10:58:50;;;;;;;6.53;3.92;;;;;;;30.47;59.28;96196.31;5105830;27;20202;-87
2022/08/03 11:01:39;;;;;;;4.00;3.70;;;;;;;30.74;55.61;96192.63;5109548;27;20211;-87
2022/08/03 11:04:18;;;;;;;4.15;3.75;;;;;;;30.77;55.39;96194.69;5097612;27;20238;-87
2022/08/03 11:06:47;;;;;;;4.65;4.25;;;;;;;30.77;56.53;96191.91;5110827;27;20211;-86
2022/08/03 11:09:20;;;;;;;4.35;3.95;;;;;;;30.82;57.01;96183.25;5108775;27;20223;-86
2022/08/03 11:11:49;;;;;;;4.40;4.05;;;;;;;30.82;58.54;96186.03;5108833;27;20219;-86
2022/08/03 11:14:18;;;;;;;4.70;4.30;;;;;;;31.18;57.12;96186.81;5100120;27;20215;-85
2022/08/03 11:16:51;;;;;;;5.25;4.18;;;;;;;31.33;55.37;96185.94;5103366;27;20200;-86
2022/08/03 11:19:21;;;;;;;4.50;4.10;;;;;;;31.36;54.72;96185.19;5101364;27;20200;-86
2022/08/03 11:21:58;;;;;;;6.35;4.07;;;;;;;31.40;54.49;96180.47;5100923;27;20212;-86
2022/08/03 11:24:57;;;;;;;5.22;4.25;;;;;;;31.25;54.39;96178.59;5122692;27;20294;-86
2022/08/03 11:27:26;;;;;;;4.72;4.30;;;;;;;31.12;56.00;96172.38;5106817;28;20208;-86
2022/08/03 11:29:59;;;;;;;4.80;4.35;;;;;;;31.07;55.78;96175.44;5098579;27;20200;-86
2022/08/03 11:32:53;;;;;;;4.57;4.18;;;;;;;31.19;57.06;96174.50;5098133;27;20224;-86
2022/08/03 11:35:21;;;;;;;4.50;3.78;;;;;;;31.64;57.53;96170.22;5100499;27;20288;-86
2022/08/03 11:38:07;;;;;;;6.63;4.00;;;;;;;31.78;57.00;96173.25;5106705;27;20294;-85
2022/08/03 11:40:36;;;;;;;4.60;4.20;;;;;;;31.81;55.03;96172.53;5095478;27;20211;-86
2022/08/03 11:43:04;;;;;;;4.43;3.90;;;;;;;31.92;52.85;96165.13;5108072;27;20263;-86
2022/08/03 11:45:32;;;;;;;6.03;4.07;;;;;;;32.08;52.54;96165.81;5098349;27;20208;-85